sensor_id;sensor_type;location;lat;lon;timestamp;P1;durP1;ratioP1;P2;durP2;ratioP2
17850;SDS011;9051;51.548;14.348;2022-12-07T00:01:10;5.83;;;3.53;;
17850;SDS011;9051;51.548;14.348;2022-12-07T00:03:44;4.63;;;3.50;;
17850;SDS011;9051;51.548;14.348;2022-12-07T00:06:20;5.47;;;3.57;;
17850;SDS011;9051;51.548;14.348;2022-12-07T00:08:53;5.23;;;4.00;;
17850;SDS011;9051;51.548;14.348;2022-12-07T00:11:28;5.23;;;4.10;;
17850;SDS011;9051;51.548;14.348;2022-12-07T00:14:01;6.03;;;4.40;;
17850;SDS011;9051;51.548;14.348;2022-12-07T00:16:36;7.07;;;4.63;;
17850;SDS011;9051;51.548;14.348;2022-12-07T00:19:09;5.63;;;4.50;;
17850;SDS011;9051;51.548;14.348;2022-12-07T00:21:45;4.97;;;4.10;;
17850;SDS011;9051;51.548;14.348;2022-12-07T00:24:18;5.90;;;4.43;;
17850;SDS011;9051;51.548;14.348;2022-12-07T00:26:52;9.43;;;5.13;;
17850;SDS011;9051;51.548;14.348;2022-12-07T00:29:24;8.07;;;4.90;;
17850;SDS011;9051;51.548;14.348;2022-12-07T00:31:57;7.00;;;5.10;;
17850;SDS011;9051;51.548;14.348;2022-12-07T00:34:29;6.93;;;4.83;;
17850;SDS011;9051;51.548;14.348;2022-12-07T00:37:02;8.47;;;5.33;;
17850;SDS011;9051;51.548;14.348;2022-12-07T00:39:35;7.13;;;5.47;;
17850;SDS011;9051;51.548;14.348;2022-12-07T00:42:08;8.03;;;5.70;;
17850;SDS011;9051;51.548;14.348;2022-12-07T00:44:40;8.23;;;5.93;;
17850;SDS011;9051;51.548;14.348;2022-12-07T00:47:12;8.40;;;5.60;;
17850;SDS011;9051;51.548;14.348;2022-12-07T00:49:44;9.53;;;6.30;;
17850;SDS011;9051;51.548;14.348;2022-12-07T00:52:18;8.87;;;6.33;;
17850;SDS011;9051;51.548;14.348;2022-12-07T00:54:51;10.03;;;6.33;;
17850;SDS011;9051;51.548;14.348;2022-12-07T00:57:25;9.47;;;6.20;;
17850;SDS011;9051;51.548;14.348;2022-12-07T00:59:57;9.37;;;6.63;;
17850;SDS011;9051;51.548;14.348;2022-12-07T01:02:31;10.37;;;6.60;;
17850;SDS011;9051;51.548;14.348;2022-12-07T01:05:03;9.73;;;6.67;;
17850;SDS011;9051;51.548;14.348;2022-12-07T01:07:37;9.43;;;6.33;;
17850;SDS011;9051;51.548;14.348;2022-12-07T01:10:10;9.57;;;6.23;;
17850;SDS011;9051;51.548;14.348;2022-12-07T01:12:43;9.20;;;5.90;;
17850;SDS011;9051;51.548;14.348;2022-12-07T01:15:16;7.60;;;5.20;;
17850;SDS011;9051;51.548;14.348;2022-12-07T01:17:48;9.37;;;5.80;;
17850;SDS011;9051;51.548;14.348;2022-12-07T01:20:21;8.13;;;5.90;;
17850;SDS011;9051;51.548;14.348;2022-12-07T01:22:55;10.37;;;5.93;;
17850;SDS011;9051;51.548;14.348;2022-12-07T01:25:27;7.70;;;5.63;;
17850;SDS011;9051;51.548;14.348;2022-12-07T01:27:59;7.77;;;6.00;;
17850;SDS011;9051;51.548;14.348;2022-12-07T01:30:31;8.53;;;6.23;;
17850;SDS011;9051;51.548;14.348;2022-12-07T01:33:04;7.97;;;6.03;;
17850;SDS011;9051;51.548;14.348;2022-12-07T01:35:36;9.90;;;6.60;;
17850;SDS011;9051;51.548;14.348;2022-12-07T01:38:10;9.00;;;6.77;;
17850;SDS011;9051;51.548;14.348;2022-12-07T01:40:43;10.27;;;6.20;;
17850;SDS011;9051;51.548;14.348;2022-12-07T01:43:16;9.00;;;6.60;;
17850;SDS011;9051;51.548;14.348;2022-12-07T01:45:50;9.43;;;6.50;;
17850;SDS011;9051;51.548;14.348;2022-12-07T01:48:23;9.77;;;6.43;;
17850;SDS011;9051;51.548;14.348;2022-12-07T01:50:59;8.93;;;6.47;;
17850;SDS011;9051;51.548;14.348;2022-12-07T01:53:36;9.27;;;6.67;;
17850;SDS011;9051;51.548;14.348;2022-12-07T01:56:15;11.03;;;7.00;;
17850;SDS011;9051;51.548;14.348;2022-12-07T01:58:50;8.60;;;6.50;;
17850;SDS011;9051;51.548;14.348;2022-12-07T02:01:23;9.17;;;6.60;;
17850;SDS011;9051;51.548;14.348;2022-12-07T02:03:56;9.20;;;6.60;;
17850;SDS011;9051;51.548;14.348;2022-12-07T02:06:29;8.77;;;6.20;;
17850;SDS011;9051;51.548;14.348;2022-12-07T02:09:04;10.23;;;7.07;;
17850;SDS011;9051;51.548;14.348;2022-12-07T02:11:36;9.30;;;6.77;;
17850;SDS011;9051;51.548;14.348;2022-12-07T02:14:09;10.47;;;6.50;;
17850;SDS011;9051;51.548;14.348;2022-12-07T02:16:46;8.33;;;6.63;;
17850;SDS011;9051;51.548;14.348;2022-12-07T02:19:37;9.53;;;6.77;;
17850;SDS011;9051;51.548;14.348;2022-12-07T02:22:47;8.73;;;6.63;;
17850;SDS011;9051;51.548;14.348;2022-12-07T02:25:37;9.13;;;6.90;;
17850;SDS011;9051;51.548;14.348;2022-12-07T02:28:29;10.33;;;6.33;;
17850;SDS011;9051;51.548;14.348;2022-12-07T02:31:08;12.07;;;6.77;;
17850;SDS011;9051;51.548;14.348;2022-12-07T02:33:45;8.30;;;6.00;;
17850;SDS011;9051;51.548;14.348;2022-12-07T02:36:22;7.30;;;5.47;;
17850;SDS011;9051;51.548;14.348;2022-12-07T02:39:00;8.70;;;6.00;;
17850;SDS011;9051;51.548;14.348;2022-12-07T02:41:40;9.80;;;6.17;;
17850;SDS011;9051;51.548;14.348;2022-12-07T02:44:15;7.73;;;5.60;;
17850;SDS011;9051;51.548;14.348;2022-12-07T02:46:52;7.23;;;5.27;;
17850;SDS011;9051;51.548;14.348;2022-12-07T02:49:27;7.73;;;5.20;;
17850;SDS011;9051;51.548;14.348;2022-12-07T02:52:01;7.10;;;5.20;;
17850;SDS011;9051;51.548;14.348;2022-12-07T02:54:33;7.80;;;5.50;;
17850;SDS011;9051;51.548;14.348;2022-12-07T02:57:10;8.93;;;5.47;;
17850;SDS011;9051;51.548;14.348;2022-12-07T02:59:57;7.93;;;5.43;;
17850;SDS011;9051;51.548;14.348;2022-12-07T03:02:41;8.67;;;5.67;;
17850;SDS011;9051;51.548;14.348;2022-12-07T03:05:28;7.87;;;5.40;;
17850;SDS011;9051;51.548;14.348;2022-12-07T03:08:13;7.83;;;5.50;;
17850;SDS011;9051;51.548;14.348;2022-12-07T03:10:52;8.33;;;5.67;;
17850;SDS011;9051;51.548;14.348;2022-12-07T03:13:28;7.97;;;5.50;;
17850;SDS011;9051;51.548;14.348;2022-12-07T03:16:07;9.20;;;5.80;;
17850;SDS011;9051;51.548;14.348;2022-12-07T03:18:46;7.80;;;5.03;;
17850;SDS011;9051;51.548;14.348;2022-12-07T03:21:23;7.73;;;5.47;;
17850;SDS011;9051;51.548;14.348;2022-12-07T03:23:58;7.63;;;5.13;;
17850;SDS011;9051;51.548;14.348;2022-12-07T03:26:35;6.70;;;4.90;;
17850;SDS011;9051;51.548;14.348;2022-12-07T03:29:11;7.90;;;4.67;;
17850;SDS011;9051;51.548;14.348;2022-12-07T03:31:51;5.93;;;4.53;;
17850;SDS011;9051;51.548;14.348;2022-12-07T03:34:32;6.93;;;5.00;;
17850;SDS011;9051;51.548;14.348;2022-12-07T03:37:08;6.70;;;4.90;;
17850;SDS011;9051;51.548;14.348;2022-12-07T03:39:46;8.93;;;5.60;;
17850;SDS011;9051;51.548;14.348;2022-12-07T03:42:30;8.07;;;5.60;;
17850;SDS011;9051;51.548;14.348;2022-12-07T03:45:04;7.33;;;5.43;;
17850;SDS011;9051;51.548;14.348;2022-12-07T03:47:40;8.17;;;5.00;;
17850;SDS011;9051;51.548;14.348;2022-12-07T03:50:21;8.40;;;5.07;;
17850;SDS011;9051;51.548;14.348;2022-12-07T03:53:02;5.93;;;4.40;;
17850;SDS011;9051;51.548;14.348;2022-12-07T03:55:40;7.33;;;5.20;;
17850;SDS011;9051;51.548;14.348;2022-12-07T03:58:16;6.97;;;4.63;;
17850;SDS011;9051;51.548;14.348;2022-12-07T04:00:51;6.67;;;4.73;;
17850;SDS011;9051;51.548;14.348;2022-12-07T04:03:24;7.07;;;5.23;;
17850;SDS011;9051;51.548;14.348;2022-12-07T04:05:59;7.13;;;4.90;;
17850;SDS011;9051;51.548;14.348;2022-12-07T04:08:33;7.07;;;5.33;;
17850;SDS011;9051;51.548;14.348;2022-12-07T04:11:05;7.13;;;5.30;;
17850;SDS011;9051;51.548;14.348;2022-12-07T04:13:37;8.10;;;5.23;;
17850;SDS011;9051;51.548;14.348;2022-12-07T04:16:23;8.10;;;5.67;;
17850;SDS011;9051;51.548;14.348;2022-12-07T04:18:55;6.10;;;5.13;;
17850;SDS011;9051;51.548;14.348;2022-12-07T04:21:29;7.73;;;5.57;;
17850;SDS011;9051;51.548;14.348;2022-12-07T04:24:02;10.60;;;6.30;;
17850;SDS011;9051;51.548;14.348;2022-12-07T04:26:34;8.00;;;5.30;;
17850;SDS011;9051;51.548;14.348;2022-12-07T04:29:06;8.33;;;5.53;;
17850;SDS011;9051;51.548;14.348;2022-12-07T04:31:39;9.93;;;6.30;;
17850;SDS011;9051;51.548;14.348;2022-12-07T04:34:12;8.13;;;5.77;;
17850;SDS011;9051;51.548;14.348;2022-12-07T04:36:46;9.03;;;6.63;;
17850;SDS011;9051;51.548;14.348;2022-12-07T04:39:19;9.70;;;6.87;;
17850;SDS011;9051;51.548;14.348;2022-12-07T04:41:53;11.93;;;7.97;;
17850;SDS011;9051;51.548;14.348;2022-12-07T04:44:25;14.53;;;8.60;;
17850;SDS011;9051;51.548;14.348;2022-12-07T04:46:58;13.93;;;8.73;;
17850;SDS011;9051;51.548;14.348;2022-12-07T04:49:30;12.17;;;8.30;;
17850;SDS011;9051;51.548;14.348;2022-12-07T04:52:05;14.37;;;9.27;;
17850;SDS011;9051;51.548;14.348;2022-12-07T04:54:37;16.63;;;9.40;;
17850;SDS011;9051;51.548;14.348;2022-12-07T04:57:09;15.63;;;9.60;;
17850;SDS011;9051;51.548;14.348;2022-12-07T04:59:42;15.77;;;9.53;;
17850;SDS011;9051;51.548;14.348;2022-12-07T05:02:14;15.17;;;9.50;;
17850;SDS011;9051;51.548;14.348;2022-12-07T05:04:47;16.13;;;10.20;;
17850;SDS011;9051;51.548;14.348;2022-12-07T05:07:20;15.90;;;9.33;;
17850;SDS011;9051;51.548;14.348;2022-12-07T05:09:54;16.07;;;9.47;;
17850;SDS011;9051;51.548;14.348;2022-12-07T05:12:26;13.37;;;9.10;;
17850;SDS011;9051;51.548;14.348;2022-12-07T05:14:59;14.37;;;9.43;;
17850;SDS011;9051;51.548;14.348;2022-12-07T05:17:31;14.63;;;10.17;;
17850;SDS011;9051;51.548;14.348;2022-12-07T05:20:04;17.80;;;10.60;;
17850;SDS011;9051;51.548;14.348;2022-12-07T05:22:44;15.50;;;9.77;;
17850;SDS011;9051;51.548;14.348;2022-12-07T05:25:16;16.43;;;10.80;;
17850;SDS011;9051;51.548;14.348;2022-12-07T05:27:48;14.97;;;10.07;;
17850;SDS011;9051;51.548;14.348;2022-12-07T05:30:20;16.20;;;10.33;;
17850;SDS011;9051;51.548;14.348;2022-12-07T05:32:53;14.30;;;9.83;;
17850;SDS011;9051;51.548;14.348;2022-12-07T05:35:25;15.60;;;9.90;;
17850;SDS011;9051;51.548;14.348;2022-12-07T05:38:01;16.50;;;10.23;;
17850;SDS011;9051;51.548;14.348;2022-12-07T05:40:33;14.70;;;9.97;;
17850;SDS011;9051;51.548;14.348;2022-12-07T05:43:05;18.03;;;11.07;;
17850;SDS011;9051;51.548;14.348;2022-12-07T05:45:37;14.07;;;10.07;;
17850;SDS011;9051;51.548;14.348;2022-12-07T05:48:09;17.83;;;10.50;;
17850;SDS011;9051;51.548;14.348;2022-12-07T05:50:41;16.00;;;10.53;;
17850;SDS011;9051;51.548;14.348;2022-12-07T05:53:16;13.97;;;9.73;;
17850;SDS011;9051;51.548;14.348;2022-12-07T05:55:49;17.37;;;10.57;;
17850;SDS011;9051;51.548;14.348;2022-12-07T05:58:23;15.30;;;10.07;;
17850;SDS011;9051;51.548;14.348;2022-12-07T06:01:12;15.70;;;10.37;;
17850;SDS011;9051;51.548;14.348;2022-12-07T06:03:45;15.50;;;10.23;;
17850;SDS011;9051;51.548;14.348;2022-12-07T06:06:17;16.17;;;10.40;;
17850;SDS011;9051;51.548;14.348;2022-12-07T06:08:50;15.87;;;9.87;;
17850;SDS011;9051;51.548;14.348;2022-12-07T06:11:22;14.77;;;10.70;;
17850;SDS011;9051;51.548;14.348;2022-12-07T06:14:12;16.37;;;9.83;;
17850;SDS011;9051;51.548;14.348;2022-12-07T06:16:44;15.17;;;9.67;;
17850;SDS011;9051;51.548;14.348;2022-12-07T06:19:16;16.10;;;10.03;;
17850;SDS011;9051;51.548;14.348;2022-12-07T06:21:50;16.00;;;10.03;;
17850;SDS011;9051;51.548;14.348;2022-12-07T06:24:24;15.47;;;10.67;;
17850;SDS011;9051;51.548;14.348;2022-12-07T06:26:56;14.43;;;9.60;;
17850;SDS011;9051;51.548;14.348;2022-12-07T06:29:29;14.40;;;9.60;;
17850;SDS011;9051;51.548;14.348;2022-12-07T06:32:00;15.40;;;9.30;;
17850;SDS011;9051;51.548;14.348;2022-12-07T06:34:32;14.93;;;9.63;;
17850;SDS011;9051;51.548;14.348;2022-12-07T06:37:05;15.23;;;9.27;;
17850;SDS011;9051;51.548;14.348;2022-12-07T06:39:38;15.13;;;10.20;;
17850;SDS011;9051;51.548;14.348;2022-12-07T06:42:11;15.90;;;10.00;;
17850;SDS011;9051;51.548;14.348;2022-12-07T06:44:43;13.60;;;9.27;;
17850;SDS011;9051;51.548;14.348;2022-12-07T06:47:15;15.70;;;9.33;;
17850;SDS011;9051;51.548;14.348;2022-12-07T06:49:48;15.10;;;9.73;;
17850;SDS011;9051;51.548;14.348;2022-12-07T06:52:20;13.97;;;9.17;;
17850;SDS011;9051;51.548;14.348;2022-12-07T06:54:55;13.63;;;9.60;;
17850;SDS011;9051;51.548;14.348;2022-12-07T06:57:28;12.70;;;8.73;;
17850;SDS011;9051;51.548;14.348;2022-12-07T07:00:00;13.27;;;8.87;;
17850;SDS011;9051;51.548;14.348;2022-12-07T07:02:33;13.97;;;8.60;;
17850;SDS011;9051;51.548;14.348;2022-12-07T07:05:07;13.40;;;8.53;;
17850;SDS011;9051;51.548;14.348;2022-12-07T07:07:42;12.23;;;8.73;;
17850;SDS011;9051;51.548;14.348;2022-12-07T07:10:15;15.70;;;9.87;;
17850;SDS011;9051;51.548;14.348;2022-12-07T07:12:48;15.27;;;8.90;;
17850;SDS011;9051;51.548;14.348;2022-12-07T07:15:20;13.73;;;9.13;;
17850;SDS011;9051;51.548;14.348;2022-12-07T07:17:52;15.03;;;9.20;;
17850;SDS011;9051;51.548;14.348;2022-12-07T07:20:23;17.13;;;9.43;;
17850;SDS011;9051;51.548;14.348;2022-12-07T07:22:56;13.07;;;8.97;;
17850;SDS011;9051;51.548;14.348;2022-12-07T07:25:29;13.00;;;8.47;;
17850;SDS011;9051;51.548;14.348;2022-12-07T07:28:01;15.50;;;9.33;;
17850;SDS011;9051;51.548;14.348;2022-12-07T07:30:34;14.07;;;8.80;;
17850;SDS011;9051;51.548;14.348;2022-12-07T07:33:06;15.03;;;9.00;;
17850;SDS011;9051;51.548;14.348;2022-12-07T07:35:39;13.77;;;8.80;;
17850;SDS011;9051;51.548;14.348;2022-12-07T07:38:12;13.10;;;9.07;;
17850;SDS011;9051;51.548;14.348;2022-12-07T07:40:48;12.37;;;8.57;;
17850;SDS011;9051;51.548;14.348;2022-12-07T07:43:20;14.67;;;8.80;;
17850;SDS011;9051;51.548;14.348;2022-12-07T07:45:52;11.93;;;8.30;;
17850;SDS011;9051;51.548;14.348;2022-12-07T07:48:26;13.50;;;9.00;;
17850;SDS011;9051;51.548;14.348;2022-12-07T07:50:58;12.87;;;8.53;;
17850;SDS011;9051;51.548;14.348;2022-12-07T07:53:30;13.03;;;8.90;;
17850;SDS011;9051;51.548;14.348;2022-12-07T07:56:03;12.70;;;8.47;;
17850;SDS011;9051;51.548;14.348;2022-12-07T07:58:35;14.70;;;8.80;;
17850;SDS011;9051;51.548;14.348;2022-12-07T08:01:09;11.73;;;7.80;;
17850;SDS011;9051;51.548;14.348;2022-12-07T08:03:41;12.67;;;8.27;;
17850;SDS011;9051;51.548;14.348;2022-12-07T08:06:13;13.43;;;8.77;;
17850;SDS011;9051;51.548;14.348;2022-12-07T08:08:45;12.67;;;8.57;;
17850;SDS011;9051;51.548;14.348;2022-12-07T08:11:19;11.30;;;8.03;;
17850;SDS011;9051;51.548;14.348;2022-12-07T08:13:51;12.83;;;9.13;;
17850;SDS011;9051;51.548;14.348;2022-12-07T08:16:23;14.37;;;8.60;;
17850;SDS011;9051;51.548;14.348;2022-12-07T08:18:55;34.07;;;19.73;;
17850;SDS011;9051;51.548;14.348;2022-12-07T08:21:27;62.30;;;34.40;;
17850;SDS011;9051;51.548;14.348;2022-12-07T08:23:59;16.50;;;11.07;;
17850;SDS011;9051;51.548;14.348;2022-12-07T08:26:32;15.97;;;10.60;;
17850;SDS011;9051;51.548;14.348;2022-12-07T08:29:05;21.53;;;16.23;;
17850;SDS011;9051;51.548;14.348;2022-12-07T08:31:37;13.43;;;9.87;;
17850;SDS011;9051;51.548;14.348;2022-12-07T08:34:10;12.10;;;8.87;;
17850;SDS011;9051;51.548;14.348;2022-12-07T08:36:42;12.53;;;9.07;;
17850;SDS011;9051;51.548;14.348;2022-12-07T08:39:14;12.47;;;8.87;;
17850;SDS011;9051;51.548;14.348;2022-12-07T08:41:48;11.93;;;8.67;;
17850;SDS011;9051;51.548;14.348;2022-12-07T08:44:20;13.93;;;9.83;;
17850;SDS011;9051;51.548;14.348;2022-12-07T08:46:53;13.90;;;9.47;;
17850;SDS011;9051;51.548;14.348;2022-12-07T08:49:30;14.40;;;9.37;;
17850;SDS011;9051;51.548;14.348;2022-12-07T08:52:06;12.60;;;9.40;;
17850;SDS011;9051;51.548;14.348;2022-12-07T08:54:38;14.10;;;10.00;;
17850;SDS011;9051;51.548;14.348;2022-12-07T08:57:15;14.07;;;9.20;;
17850;SDS011;9051;51.548;14.348;2022-12-07T08:59:48;13.53;;;9.20;;
17850;SDS011;9051;51.548;14.348;2022-12-07T09:02:20;12.23;;;9.50;;
17850;SDS011;9051;51.548;14.348;2022-12-07T09:04:55;14.60;;;9.47;;
17850;SDS011;9051;51.548;14.348;2022-12-07T09:07:27;14.67;;;10.10;;
17850;SDS011;9051;51.548;14.348;2022-12-07T09:10:02;17.33;;;10.00;;
17850;SDS011;9051;51.548;14.348;2022-12-07T09:12:37;13.10;;;9.43;;
17850;SDS011;9051;51.548;14.348;2022-12-07T09:15:10;15.23;;;9.90;;
17850;SDS011;9051;51.548;14.348;2022-12-07T09:17:44;12.10;;;8.63;;
17850;SDS011;9051;51.548;14.348;2022-12-07T09:20:16;14.77;;;8.90;;
17850;SDS011;9051;51.548;14.348;2022-12-07T09:22:49;18.33;;;12.50;;
17850;SDS011;9051;51.548;14.348;2022-12-07T09:25:21;20.57;;;15.10;;
17850;SDS011;9051;51.548;14.348;2022-12-07T09:27:58;31.10;;;17.70;;
17850;SDS011;9051;51.548;14.348;2022-12-07T09:30:30;69.40;;;35.93;;
17850;SDS011;9051;51.548;14.348;2022-12-07T09:33:03;63.67;;;35.57;;
17850;SDS011;9051;51.548;14.348;2022-12-07T09:35:35;21.40;;;14.90;;
17850;SDS011;9051;51.548;14.348;2022-12-07T09:38:07;14.50;;;9.53;;
17850;SDS011;9051;51.548;14.348;2022-12-07T09:40:39;23.43;;;16.67;;
17850;SDS011;9051;51.548;14.348;2022-12-07T09:43:15;27.93;;;19.97;;
17850;SDS011;9051;51.548;14.348;2022-12-07T09:45:49;17.53;;;10.77;;
17850;SDS011;9051;51.548;14.348;2022-12-07T09:48:25;31.10;;;21.80;;
17850;SDS011;9051;51.548;14.348;2022-12-07T09:51:00;16.47;;;12.70;;
17850;SDS011;9051;51.548;14.348;2022-12-07T09:53:33;13.53;;;10.80;;
17850;SDS011;9051;51.548;14.348;2022-12-07T09:56:08;13.23;;;9.50;;
17850;SDS011;9051;51.548;14.348;2022-12-07T09:58:45;13.70;;;9.90;;
17850;SDS011;9051;51.548;14.348;2022-12-07T10:01:19;11.60;;;8.30;;
17850;SDS011;9051;51.548;14.348;2022-12-07T10:03:52;11.23;;;8.60;;
17850;SDS011;9051;51.548;14.348;2022-12-07T10:06:26;14.27;;;8.33;;
17850;SDS011;9051;51.548;14.348;2022-12-07T10:08:59;12.50;;;8.70;;
17850;SDS011;9051;51.548;14.348;2022-12-07T10:11:31;12.13;;;8.57;;
17850;SDS011;9051;51.548;14.348;2022-12-07T10:14:11;12.63;;;8.87;;
17850;SDS011;9051;51.548;14.348;2022-12-07T10:16:45;11.13;;;8.37;;
17850;SDS011;9051;51.548;14.348;2022-12-07T10:19:18;12.67;;;8.73;;
17850;SDS011;9051;51.548;14.348;2022-12-07T10:22:00;11.07;;;7.97;;
17850;SDS011;9051;51.548;14.348;2022-12-07T10:24:37;10.33;;;7.50;;
17850;SDS011;9051;51.548;14.348;2022-12-07T10:27:17;11.00;;;7.90;;
17850;SDS011;9051;51.548;14.348;2022-12-07T10:29:52;9.00;;;6.67;;
17850;SDS011;9051;51.548;14.348;2022-12-07T10:32:27;13.80;;;10.03;;
17850;SDS011;9051;51.548;14.348;2022-12-07T10:35:18;66.40;;;36.37;;
17850;SDS011;9051;51.548;14.348;2022-12-07T10:37:55;13.70;;;9.33;;
17850;SDS011;9051;51.548;14.348;2022-12-07T10:40:31;24.93;;;15.67;;
17850;SDS011;9051;51.548;14.348;2022-12-07T10:43:16;15.30;;;11.23;;
17850;SDS011;9051;51.548;14.348;2022-12-07T10:46:04;11.40;;;8.53;;
17850;SDS011;9051;51.548;14.348;2022-12-07T10:48:52;13.20;;;9.00;;
17850;SDS011;9051;51.548;14.348;2022-12-07T10:51:33;13.13;;;9.67;;
17850;SDS011;9051;51.548;14.348;2022-12-07T10:54:16;15.20;;;11.93;;
17850;SDS011;9051;51.548;14.348;2022-12-07T10:57:03;16.33;;;8.10;;
17850;SDS011;9051;51.548;14.348;2022-12-07T11:00:00;9.03;;;6.27;;
17850;SDS011;9051;51.548;14.348;2022-12-07T11:02:49;8.40;;;6.23;;
17850;SDS011;9051;51.548;14.348;2022-12-07T11:05:33;9.73;;;6.10;;
17850;SDS011;9051;51.548;14.348;2022-12-07T11:08:14;8.73;;;5.63;;
17850;SDS011;9051;51.548;14.348;2022-12-07T11:10:53;8.77;;;5.50;;
17850;SDS011;9051;51.548;14.348;2022-12-07T11:13:31;5.80;;;5.20;;
17850;SDS011;9051;51.548;14.348;2022-12-07T11:16:24;9.80;;;6.00;;
17850;SDS011;9051;51.548;14.348;2022-12-07T11:19:14;6.73;;;5.13;;
17850;SDS011;9051;51.548;14.348;2022-12-07T11:22:01;6.57;;;5.37;;
17850;SDS011;9051;51.548;14.348;2022-12-07T11:24:39;7.50;;;5.20;;
17850;SDS011;9051;51.548;14.348;2022-12-07T11:27:20;7.30;;;5.03;;
17850;SDS011;9051;51.548;14.348;2022-12-07T11:30:12;7.17;;;5.80;;
17850;SDS011;9051;51.548;14.348;2022-12-07T11:32:53;7.60;;;5.70;;
17850;SDS011;9051;51.548;14.348;2022-12-07T11:35:40;7.00;;;5.50;;
17850;SDS011;9051;51.548;14.348;2022-12-07T11:38:26;8.10;;;5.63;;
17850;SDS011;9051;51.548;14.348;2022-12-07T11:41:06;7.80;;;5.53;;
17850;SDS011;9051;51.548;14.348;2022-12-07T11:43:50;7.37;;;5.63;;
17850;SDS011;9051;51.548;14.348;2022-12-07T11:46:29;7.80;;;5.90;;
17850;SDS011;9051;51.548;14.348;2022-12-07T11:49:19;9.13;;;5.60;;
17850;SDS011;9051;51.548;14.348;2022-12-07T11:51:57;9.90;;;5.60;;
17850;SDS011;9051;51.548;14.348;2022-12-07T11:54:34;6.93;;;5.27;;
17850;SDS011;9051;51.548;14.348;2022-12-07T11:57:12;7.80;;;5.67;;
17850;SDS011;9051;51.548;14.348;2022-12-07T11:59:52;6.50;;;5.43;;
17850;SDS011;9051;51.548;14.348;2022-12-07T12:02:32;6.47;;;5.20;;
17850;SDS011;9051;51.548;14.348;2022-12-07T12:05:12;7.67;;;5.20;;
17850;SDS011;9051;51.548;14.348;2022-12-07T12:07:51;6.43;;;4.80;;
17850;SDS011;9051;51.548;14.348;2022-12-07T12:10:33;6.93;;;5.20;;
17850;SDS011;9051;51.548;14.348;2022-12-07T12:13:19;8.60;;;5.23;;
17850;SDS011;9051;51.548;14.348;2022-12-07T12:16:13;7.63;;;5.07;;
17850;SDS011;9051;51.548;14.348;2022-12-07T12:19:00;5.47;;;4.40;;
17850;SDS011;9051;51.548;14.348;2022-12-07T12:21:45;6.40;;;5.13;;
17850;SDS011;9051;51.548;14.348;2022-12-07T12:24:26;6.60;;;4.60;;
17850;SDS011;9051;51.548;14.348;2022-12-07T12:27:01;7.57;;;4.83;;
17850;SDS011;9051;51.548;14.348;2022-12-07T12:29:37;5.00;;;4.37;;
17850;SDS011;9051;51.548;14.348;2022-12-07T12:32:16;7.50;;;4.93;;
17850;SDS011;9051;51.548;14.348;2022-12-07T12:34:58;7.27;;;4.67;;
17850;SDS011;9051;51.548;14.348;2022-12-07T12:37:51;5.57;;;4.50;;
17850;SDS011;9051;51.548;14.348;2022-12-07T12:40:44;7.43;;;4.97;;
17850;SDS011;9051;51.548;14.348;2022-12-07T12:49:33;5.63;;;4.30;;
17850;SDS011;9051;51.548;14.348;2022-12-07T12:55:27;6.27;;;3.90;;
17850;SDS011;9051;51.548;14.348;2022-12-07T12:58:31;5.77;;;4.00;;
17850;SDS011;9051;51.548;14.348;2022-12-07T13:10:31;5.20;;;4.10;;
17850;SDS011;9051;51.548;14.348;2022-12-07T13:22:35;5.70;;;4.53;;
17850;SDS011;9051;51.548;14.348;2022-12-07T13:25:23;6.67;;;4.23;;
17850;SDS011;9051;51.548;14.348;2022-12-07T13:28:16;4.53;;;3.07;;
17850;SDS011;9051;51.548;14.348;2022-12-07T13:30:59;4.83;;;3.40;;
17850;SDS011;9051;51.548;14.348;2022-12-07T13:33:52;4.73;;;3.20;;
17850;SDS011;9051;51.548;14.348;2022-12-07T13:36:25;5.20;;;4.03;;
17850;SDS011;9051;51.548;14.348;2022-12-07T13:38:59;5.60;;;4.17;;
17850;SDS011;9051;51.548;14.348;2022-12-07T13:41:41;3.57;;;3.00;;
17850;SDS011;9051;51.548;14.348;2022-12-07T13:44:14;7.60;;;3.83;;
17850;SDS011;9051;51.548;14.348;2022-12-07T13:46:52;4.77;;;3.60;;
17850;SDS011;9051;51.548;14.348;2022-12-07T13:49:33;4.67;;;2.43;;
17850;SDS011;9051;51.548;14.348;2022-12-07T13:52:13;3.93;;;3.20;;
17850;SDS011;9051;51.548;14.348;2022-12-07T13:54:48;2.80;;;2.30;;
17850;SDS011;9051;51.548;14.348;2022-12-07T13:57:21;6.07;;;2.40;;
17850;SDS011;9051;51.548;14.348;2022-12-07T13:59:55;3.97;;;2.13;;
17850;SDS011;9051;51.548;14.348;2022-12-07T14:02:30;3.20;;;2.00;;
17850;SDS011;9051;51.548;14.348;2022-12-07T14:05:07;4.57;;;2.00;;
17850;SDS011;9051;51.548;14.348;2022-12-07T14:07:48;4.07;;;1.70;;
17850;SDS011;9051;51.548;14.348;2022-12-07T14:10:26;3.77;;;1.70;;
17850;SDS011;9051;51.548;14.348;2022-12-07T14:12:59;4.53;;;2.07;;
17850;SDS011;9051;51.548;14.348;2022-12-07T14:15:34;2.17;;;1.83;;
17850;SDS011;9051;51.548;14.348;2022-12-07T14:21:02;2.77;;;1.70;;
17850;SDS011;9051;51.548;14.348;2022-12-07T14:23:36;2.93;;;1.70;;
17850;SDS011;9051;51.548;14.348;2022-12-07T14:26:11;2.60;;;1.77;;
17850;SDS011;9051;51.548;14.348;2022-12-07T14:28:44;2.10;;;1.67;;
17850;SDS011;9051;51.548;14.348;2022-12-07T14:31:18;2.13;;;1.80;;
17850;SDS011;9051;51.548;14.348;2022-12-07T14:34:00;2.20;;;1.67;;
17850;SDS011;9051;51.548;14.348;2022-12-07T14:36:32;2.83;;;1.80;;
17850;SDS011;9051;51.548;14.348;2022-12-07T14:39:05;1.60;;;1.50;;
17850;SDS011;9051;51.548;14.348;2022-12-07T14:41:37;4.37;;;1.70;;
17850;SDS011;9051;51.548;14.348;2022-12-07T14:44:25;3.13;;;2.50;;
17850;SDS011;9051;51.548;14.348;2022-12-07T14:46:57;2.50;;;2.20;;
17850;SDS011;9051;51.548;14.348;2022-12-07T14:49:32;3.13;;;2.30;;
17850;SDS011;9051;51.548;14.348;2022-12-07T14:52:04;3.07;;;2.03;;
17850;SDS011;9051;51.548;14.348;2022-12-07T14:54:37;5.33;;;2.97;;
17850;SDS011;9051;51.548;14.348;2022-12-07T14:57:09;3.40;;;2.80;;
17850;SDS011;9051;51.548;14.348;2022-12-07T14:59:42;3.80;;;3.10;;
17850;SDS011;9051;51.548;14.348;2022-12-07T15:02:15;4.73;;;3.10;;
17850;SDS011;9051;51.548;14.348;2022-12-07T15:04:48;4.20;;;3.10;;
17850;SDS011;9051;51.548;14.348;2022-12-07T15:07:21;3.33;;;3.03;;
17850;SDS011;9051;51.548;14.348;2022-12-07T15:09:54;4.60;;;3.50;;
17850;SDS011;9051;51.548;14.348;2022-12-07T15:12:26;5.77;;;3.70;;
17850;SDS011;9051;51.548;14.348;2022-12-07T15:14:58;3.57;;;3.17;;
17850;SDS011;9051;51.548;14.348;2022-12-07T15:17:31;5.97;;;3.50;;
17850;SDS011;9051;51.548;14.348;2022-12-07T15:20:07;5.87;;;3.87;;
17850;SDS011;9051;51.548;14.348;2022-12-07T15:22:42;5.17;;;3.87;;
17850;SDS011;9051;51.548;14.348;2022-12-07T15:25:15;6.17;;;3.80;;
17850;SDS011;9051;51.548;14.348;2022-12-07T15:27:47;5.27;;;3.77;;
17850;SDS011;9051;51.548;14.348;2022-12-07T15:30:19;6.10;;;3.97;;
17850;SDS011;9051;51.548;14.348;2022-12-07T15:32:51;4.60;;;3.87;;
17850;SDS011;9051;51.548;14.348;2022-12-07T15:35:25;7.23;;;4.00;;
17850;SDS011;9051;51.548;14.348;2022-12-07T15:37:57;5.77;;;3.70;;
17850;SDS011;9051;51.548;14.348;2022-12-07T15:40:33;5.20;;;3.73;;
17850;SDS011;9051;51.548;14.348;2022-12-07T15:43:05;5.77;;;4.00;;
17850;SDS011;9051;51.548;14.348;2022-12-07T15:45:59;6.07;;;3.73;;
17850;SDS011;9051;51.548;14.348;2022-12-07T15:48:30;4.20;;;3.47;;
17850;SDS011;9051;51.548;14.348;2022-12-07T15:51:05;5.47;;;4.20;;
17850;SDS011;9051;51.548;14.348;2022-12-07T15:53:38;5.77;;;3.50;;
17850;SDS011;9051;51.548;14.348;2022-12-07T15:56:11;5.80;;;4.33;;
17850;SDS011;9051;51.548;14.348;2022-12-07T15:58:43;6.80;;;4.07;;
17850;SDS011;9051;51.548;14.348;2022-12-07T16:01:16;5.03;;;4.20;;
17850;SDS011;9051;51.548;14.348;2022-12-07T16:03:49;5.93;;;4.30;;